sensor_id;sensor_type;location;lat;lon;timestamp;P1;durP1;ratioP1;P2;durP2;ratioP2
49109;SDS011;34921;52.320;16.142;2023-06-10T00:01:54;10.00;;;7.70;;
49109;SDS011;34921;52.320;16.142;2023-06-10T00:04:27;10.50;;;7.40;;
49109;SDS011;34921;52.320;16.142;2023-06-10T00:06:55;9.15;;;7.28;;
49109;SDS011;34921;52.320;16.142;2023-06-10T00:09:23;13.45;;;7.40;;
49109;SDS011;34921;52.320;16.142;2023-06-10T00:11:51;11.28;;;7.10;;
49109;SDS011;34921;52.320;16.142;2023-06-10T00:14:18;12.25;;;7.22;;
49109;SDS011;34921;52.320;16.142;2023-06-10T00:16:47;12.00;;;7.70;;
49109;SDS011;34921;52.320;16.142;2023-06-10T00:19:15;14.25;;;7.25;;
49109;SDS011;34921;52.320;16.142;2023-06-10T00:21:43;10.05;;;6.53;;
49109;SDS011;34921;52.320;16.142;2023-06-10T00:24:12;10.98;;;7.67;;
49109;SDS011;34921;52.320;16.142;2023-06-10T00:26:40;15.70;;;7.35;;
49109;SDS011;34921;52.320;16.142;2023-06-10T00:29:08;10.50;;;7.10;;
49109;SDS011;34921;52.320;16.142;2023-06-10T00:31:37;11.60;;;6.50;;
49109;SDS011;34921;52.320;16.142;2023-06-10T00:34:05;11.00;;;7.22;;
49109;SDS011;34921;52.320;16.142;2023-06-10T00:36:34;10.72;;;6.70;;
49109;SDS011;34921;52.320;16.142;2023-06-10T00:39:03;11.30;;;6.70;;
49109;SDS011;34921;52.320;16.142;2023-06-10T00:41:32;15.58;;;7.30;;
49109;SDS011;34921;52.320;16.142;2023-06-10T00:44:01;8.63;;;6.72;;
49109;SDS011;34921;52.320;16.142;2023-06-10T00:46:29;11.95;;;6.92;;
49109;SDS011;34921;52.320;16.142;2023-06-10T00:48:59;9.20;;;6.62;;
49109;SDS011;34921;52.320;16.142;2023-06-10T00:51:28;14.00;;;6.47;;
49109;SDS011;34921;52.320;16.142;2023-06-10T00:53:56;9.03;;;6.53;;
49109;SDS011;34921;52.320;16.142;2023-06-10T00:56:24;14.73;;;7.03;;
49109;SDS011;34921;52.320;16.142;2023-06-10T00:58:52;11.35;;;6.47;;
49109;SDS011;34921;52.320;16.142;2023-06-10T01:01:20;10.32;;;6.45;;
49109;SDS011;34921;52.320;16.142;2023-06-10T01:03:48;11.22;;;6.33;;
49109;SDS011;34921;52.320;16.142;2023-06-10T01:08:50;13.25;;;6.65;;
49109;SDS011;34921;52.320;16.142;2023-06-10T01:11:45;13.53;;;6.42;;
49109;SDS011;34921;52.320;16.142;2023-06-10T01:14:14;9.18;;;6.05;;
49109;SDS011;34921;52.320;16.142;2023-06-10T01:16:44;11.00;;;6.53;;
49109;SDS011;34921;52.320;16.142;2023-06-10T01:19:12;10.63;;;6.42;;
49109;SDS011;34921;52.320;16.142;2023-06-10T01:21:42;11.45;;;6.50;;
49109;SDS011;34921;52.320;16.142;2023-06-10T01:24:15;9.05;;;6.35;;
49109;SDS011;34921;52.320;16.142;2023-06-10T01:26:45;8.90;;;6.53;;
49109;SDS011;34921;52.320;16.142;2023-06-10T01:29:21;10.28;;;6.37;;
49109;SDS011;34921;52.320;16.142;2023-06-10T01:34:47;13.22;;;6.45;;
49109;SDS011;34921;52.320;16.142;2023-06-10T01:37:17;9.23;;;6.25;;
49109;SDS011;34921;52.320;16.142;2023-06-10T01:39:46;9.43;;;6.30;;
49109;SDS011;34921;52.320;16.142;2023-06-10T01:42:15;10.00;;;6.42;;
49109;SDS011;34921;52.320;16.142;2023-06-10T01:44:44;11.45;;;6.50;;
49109;SDS011;34921;52.320;16.142;2023-06-10T01:47:12;13.28;;;6.55;;
49109;SDS011;34921;52.320;16.142;2023-06-10T01:49:40;11.65;;;5.90;;
49109;SDS011;34921;52.320;16.142;2023-06-10T01:52:08;11.97;;;6.30;;
49109;SDS011;34921;52.320;16.142;2023-06-10T01:54:36;15.72;;;7.30;;
49109;SDS011;34921;52.320;16.142;2023-06-10T01:57:04;10.70;;;5.78;;
49109;SDS011;34921;52.320;16.142;2023-06-10T01:59:33;12.58;;;6.28;;
49109;SDS011;34921;52.320;16.142;2023-06-10T02:02:02;10.58;;;6.08;;
49109;SDS011;34921;52.320;16.142;2023-06-10T02:04:30;11.45;;;6.50;;
49109;SDS011;34921;52.320;16.142;2023-06-10T02:06:58;13.85;;;6.33;;
49109;SDS011;34921;52.320;16.142;2023-06-10T02:09:26;11.10;;;5.92;;
49109;SDS011;34921;52.320;16.142;2023-06-10T02:11:54;11.20;;;6.10;;
49109;SDS011;34921;52.320;16.142;2023-06-10T02:14:22;11.85;;;6.55;;
49109;SDS011;34921;52.320;16.142;2023-06-10T02:16:50;9.25;;;6.22;;
49109;SDS011;34921;52.320;16.142;2023-06-10T02:19:18;11.15;;;6.12;;
49109;SDS011;34921;52.320;16.142;2023-06-10T02:21:49;13.90;;;6.50;;
49109;SDS011;34921;52.320;16.142;2023-06-10T02:24:17;11.15;;;6.72;;
49109;SDS011;34921;52.320;16.142;2023-06-10T02:26:45;9.53;;;6.42;;
49109;SDS011;34921;52.320;16.142;2023-06-10T02:29:15;10.30;;;5.77;;
49109;SDS011;34921;52.320;16.142;2023-06-10T02:31:43;9.10;;;6.05;;
49109;SDS011;34921;52.320;16.142;2023-06-10T02:34:11;10.88;;;6.58;;
49109;SDS011;34921;52.320;16.142;2023-06-10T02:36:39;9.23;;;6.33;;
49109;SDS011;34921;52.320;16.142;2023-06-10T02:39:07;12.07;;;6.53;;
49109;SDS011;34921;52.320;16.142;2023-06-10T02:41:35;12.80;;;6.03;;
49109;SDS011;34921;52.320;16.142;2023-06-10T02:44:03;14.58;;;7.10;;
49109;SDS011;34921;52.320;16.142;2023-06-10T02:46:31;14.05;;;7.10;;
49109;SDS011;34921;52.320;16.142;2023-06-10T02:48:59;11.70;;;6.67;;
49109;SDS011;34921;52.320;16.142;2023-06-10T02:51:29;11.93;;;6.12;;
49109;SDS011;34921;52.320;16.142;2023-06-10T02:53:57;17.20;;;7.08;;
49109;SDS011;34921;52.320;16.142;2023-06-10T02:56:24;9.33;;;6.25;;
49109;SDS011;34921;52.320;16.142;2023-06-10T02:58:53;7.65;;;5.53;;
49109;SDS011;34921;52.320;16.142;2023-06-10T03:01:21;9.75;;;5.87;;
49109;SDS011;34921;52.320;16.142;2023-06-10T03:03:49;12.78;;;6.55;;
49109;SDS011;34921;52.320;16.142;2023-06-10T03:06:18;16.17;;;6.65;;
49109;SDS011;34921;52.320;16.142;2023-06-10T03:08:46;13.53;;;6.12;;
49109;SDS011;34921;52.320;16.142;2023-06-10T03:11:14;13.48;;;6.00;;
49109;SDS011;34921;52.320;16.142;2023-06-10T03:13:42;11.15;;;5.85;;
49109;SDS011;34921;52.320;16.142;2023-06-10T03:16:10;10.85;;;6.33;;
49109;SDS011;34921;52.320;16.142;2023-06-10T03:18:39;10.15;;;6.03;;
49109;SDS011;34921;52.320;16.142;2023-06-10T03:21:08;11.20;;;6.08;;
49109;SDS011;34921;52.320;16.142;2023-06-10T03:23:36;12.15;;;5.67;;
49109;SDS011;34921;52.320;16.142;2023-06-10T03:26:05;13.05;;;6.40;;
49109;SDS011;34921;52.320;16.142;2023-06-10T03:28:33;11.93;;;6.53;;
49109;SDS011;34921;52.320;16.142;2023-06-10T03:31:01;10.75;;;5.95;;
49109;SDS011;34921;52.320;16.142;2023-06-10T03:33:29;10.38;;;5.95;;
49109;SDS011;34921;52.320;16.142;2023-06-10T03:35:57;12.85;;;5.75;;
49109;SDS011;34921;52.320;16.142;2023-06-10T03:38:25;10.48;;;5.97;;
49109;SDS011;34921;52.320;16.142;2023-06-10T03:40:53;10.40;;;5.85;;
49109;SDS011;34921;52.320;16.142;2023-06-10T03:43:21;13.70;;;5.85;;
49109;SDS011;34921;52.320;16.142;2023-06-10T03:45:49;12.63;;;6.30;;
49109;SDS011;34921;52.320;16.142;2023-06-10T03:48:17;14.35;;;6.37;;
49109;SDS011;34921;52.320;16.142;2023-06-10T03:50:45;12.50;;;5.58;;
49109;SDS011;34921;52.320;16.142;2023-06-10T03:53:14;11.95;;;6.47;;
49109;SDS011;34921;52.320;16.142;2023-06-10T03:55:42;10.43;;;6.03;;
49109;SDS011;34921;52.320;16.142;2023-06-10T03:58:11;16.57;;;6.55;;
49109;SDS011;34921;52.320;16.142;2023-06-10T04:00:40;11.93;;;5.90;;
49109;SDS011;34921;52.320;16.142;2023-06-10T04:11:34;9.88;;;5.83;;
49109;SDS011;34921;52.320;16.142;2023-06-10T04:14:02;10.25;;;6.08;;
49109;SDS011;34921;52.320;16.142;2023-06-10T04:16:30;10.80;;;5.87;;
49109;SDS011;34921;52.320;16.142;2023-06-10T04:18:59;11.83;;;6.10;;
49109;SDS011;34921;52.320;16.142;2023-06-10T04:21:28;10.68;;;5.83;;
49109;SDS011;34921;52.320;16.142;2023-06-10T04:23:56;11.05;;;5.62;;
49109;SDS011;34921;52.320;16.142;2023-06-10T04:26:24;9.90;;;5.62;;
49109;SDS011;34921;52.320;16.142;2023-06-10T04:28:53;12.88;;;6.28;;
49109;SDS011;34921;52.320;16.142;2023-06-10T04:31:21;9.70;;;5.47;;
49109;SDS011;34921;52.320;16.142;2023-06-10T04:33:49;8.95;;;5.15;;
49109;SDS011;34921;52.320;16.142;2023-06-10T04:36:17;10.23;;;5.70;;
49109;SDS011;34921;52.320;16.142;2023-06-10T04:38:45;10.45;;;5.62;;
49109;SDS011;34921;52.320;16.142;2023-06-10T04:41:13;9.08;;;5.35;;
49109;SDS011;34921;52.320;16.142;2023-06-10T04:43:41;14.13;;;5.37;;
49109;SDS011;34921;52.320;16.142;2023-06-10T04:46:09;10.08;;;6.10;;
49109;SDS011;34921;52.320;16.142;2023-06-10T04:48:37;15.32;;;5.75;;
49109;SDS011;34921;52.320;16.142;2023-06-10T04:51:06;8.55;;;5.55;;
49109;SDS011;34921;52.320;16.142;2023-06-10T04:53:34;8.43;;;5.42;;
49109;SDS011;34921;52.320;16.142;2023-06-10T04:56:02;9.58;;;5.70;;
49109;SDS011;34921;52.320;16.142;2023-06-10T04:58:30;13.05;;;5.30;;
49109;SDS011;34921;52.320;16.142;2023-06-10T05:00:58;10.23;;;4.92;;
49109;SDS011;34921;52.320;16.142;2023-06-10T05:03:27;9.75;;;5.30;;
49109;SDS011;34921;52.320;16.142;2023-06-10T05:05:55;10.43;;;5.37;;
49109;SDS011;34921;52.320;16.142;2023-06-10T05:08:22;9.33;;;5.22;;
49109;SDS011;34921;52.320;16.142;2023-06-10T05:10:50;12.47;;;5.45;;
49109;SDS011;34921;52.320;16.142;2023-06-10T05:13:18;8.70;;;4.92;;
49109;SDS011;34921;52.320;16.142;2023-06-10T05:15:46;16.52;;;5.60;;
49109;SDS011;34921;52.320;16.142;2023-06-10T05:18:15;11.90;;;5.15;;
49109;SDS011;34921;52.320;16.142;2023-06-10T05:20:44;13.03;;;5.20;;
49109;SDS011;34921;52.320;16.142;2023-06-10T05:23:12;10.75;;;4.83;;
49109;SDS011;34921;52.320;16.142;2023-06-10T05:25:40;15.40;;;5.08;;
49109;SDS011;34921;52.320;16.142;2023-06-10T05:28:09;12.13;;;4.90;;
49109;SDS011;34921;52.320;16.142;2023-06-10T05:30:37;11.45;;;4.95;;
49109;SDS011;34921;52.320;16.142;2023-06-10T05:33:06;14.90;;;5.42;;
49109;SDS011;34921;52.320;16.142;2023-06-10T05:35:34;10.55;;;4.62;;
49109;SDS011;34921;52.320;16.142;2023-06-10T05:38:02;16.35;;;5.17;;
49109;SDS011;34921;52.320;16.142;2023-06-10T05:40:30;12.00;;;4.85;;
49109;SDS011;34921;52.320;16.142;2023-06-10T05:42:58;11.30;;;5.30;;
49109;SDS011;34921;52.320;16.142;2023-06-10T05:45:26;17.37;;;5.30;;
49109;SDS011;34921;52.320;16.142;2023-06-10T05:47:55;11.75;;;4.87;;
49109;SDS011;34921;52.320;16.142;2023-06-10T05:50:24;20.02;;;5.67;;
49109;SDS011;34921;52.320;16.142;2023-06-10T05:52:52;9.48;;;4.83;;
49109;SDS011;34921;52.320;16.142;2023-06-10T05:55:22;16.23;;;5.20;;
49109;SDS011;34921;52.320;16.142;2023-06-10T05:57:57;15.08;;;5.50;;
49109;SDS011;34921;52.320;16.142;2023-06-10T06:00:27;27.20;;;5.67;;
49109;SDS011;34921;52.320;16.142;2023-06-10T06:02:55;30.62;;;6.17;;
49109;SDS011;34921;52.320;16.142;2023-06-10T06:05:24;20.25;;;5.95;;
49109;SDS011;34921;52.320;16.142;2023-06-10T06:07:53;18.82;;;5.28;;
49109;SDS011;34921;52.320;16.142;2023-06-10T06:10:21;17.35;;;5.15;;
49109;SDS011;34921;52.320;16.142;2023-06-10T06:12:49;19.10;;;5.60;;
49109;SDS011;34921;52.320;16.142;2023-06-10T06:15:18;17.37;;;5.22;;
49109;SDS011;34921;52.320;16.142;2023-06-10T06:17:46;23.50;;;5.37;;
49109;SDS011;34921;52.320;16.142;2023-06-10T06:20:14;15.98;;;4.80;;
49109;SDS011;34921;52.320;16.142;2023-06-10T06:22:42;15.95;;;5.42;;
49109;SDS011;34921;52.320;16.142;2023-06-10T06:25:10;12.93;;;4.47;;
49109;SDS011;34921;52.320;16.142;2023-06-10T06:27:38;10.03;;;5.05;;
49109;SDS011;34921;52.320;16.142;2023-06-10T06:30:06;15.72;;;5.05;;
49109;SDS011;34921;52.320;16.142;2023-06-10T06:32:35;9.45;;;5.00;;
49109;SDS011;34921;52.320;16.142;2023-06-10T06:35:03;10.60;;;5.22;;
49109;SDS011;34921;52.320;16.142;2023-06-10T06:37:35;8.75;;;4.62;;
49109;SDS011;34921;52.320;16.142;2023-06-10T06:40:03;10.32;;;4.80;;
49109;SDS011;34921;52.320;16.142;2023-06-10T06:42:32;11.83;;;5.60;;
49109;SDS011;34921;52.320;16.142;2023-06-10T06:45:00;11.08;;;5.42;;
49109;SDS011;34921;52.320;16.142;2023-06-10T06:47:29;10.93;;;4.58;;
49109;SDS011;34921;52.320;16.142;2023-06-10T06:49:57;11.63;;;4.83;;
49109;SDS011;34921;52.320;16.142;2023-06-10T06:52:24;8.78;;;4.47;;
49109;SDS011;34921;52.320;16.142;2023-06-10T06:54:52;9.63;;;4.65;;
49109;SDS011;34921;52.320;16.142;2023-06-10T06:57:21;13.53;;;5.28;;
49109;SDS011;34921;52.320;16.142;2023-06-10T06:59:50;13.37;;;6.33;;
49109;SDS011;34921;52.320;16.142;2023-06-10T07:02:18;9.53;;;4.78;;
49109;SDS011;34921;52.320;16.142;2023-06-10T07:04:46;9.53;;;5.00;;
49109;SDS011;34921;52.320;16.142;2023-06-10T07:09:45;9.10;;;5.05;;
49109;SDS011;34921;52.320;16.142;2023-06-10T07:12:12;10.80;;;4.75;;
49109;SDS011;34921;52.320;16.142;2023-06-10T07:14:40;11.03;;;6.83;;
49109;SDS011;34921;52.320;16.142;2023-06-10T07:17:08;9.73;;;5.30;;
49109;SDS011;34921;52.320;16.142;2023-06-10T07:19:37;10.65;;;5.00;;
49109;SDS011;34921;52.320;16.142;2023-06-10T07:22:05;13.18;;;4.83;;
49109;SDS011;34921;52.320;16.142;2023-06-10T07:24:33;9.98;;;5.55;;
49109;SDS011;34921;52.320;16.142;2023-06-10T07:27:01;9.33;;;4.35;;
49109;SDS011;34921;52.320;16.142;2023-06-10T07:29:29;13.13;;;6.53;;
49109;SDS011;34921;52.320;16.142;2023-06-10T07:31:57;10.78;;;6.42;;
49109;SDS011;34921;52.320;16.142;2023-06-10T07:34:25;14.68;;;5.22;;
49109;SDS011;34921;52.320;16.142;2023-06-10T07:36:53;9.05;;;4.72;;
49109;SDS011;34921;52.320;16.142;2023-06-10T07:39:22;9.95;;;4.55;;
49109;SDS011;34921;52.320;16.142;2023-06-10T07:41:50;13.05;;;5.50;;
49109;SDS011;34921;52.320;16.142;2023-06-10T07:44:21;14.38;;;5.37;;
49109;SDS011;34921;52.320;16.142;2023-06-10T07:46:49;9.25;;;4.92;;
49109;SDS011;34921;52.320;16.142;2023-06-10T07:49:18;10.78;;;4.83;;
49109;SDS011;34921;52.320;16.142;2023-06-10T07:51:46;17.70;;;6.75;;
49109;SDS011;34921;52.320;16.142;2023-06-10T07:54:14;15.38;;;7.22;;
49109;SDS011;34921;52.320;16.142;2023-06-10T07:56:42;16.02;;;7.40;;
49109;SDS011;34921;52.320;16.142;2023-06-10T07:59:10;16.75;;;6.87;;
49109;SDS011;34921;52.320;16.142;2023-06-10T08:01:38;9.98;;;5.47;;
49109;SDS011;34921;52.320;16.142;2023-06-10T08:04:07;14.23;;;5.70;;
49109;SDS011;34921;52.320;16.142;2023-06-10T08:06:35;14.38;;;6.15;;
49109;SDS011;34921;52.320;16.142;2023-06-10T08:09:04;14.15;;;7.72;;
49109;SDS011;34921;52.320;16.142;2023-06-10T08:11:32;12.58;;;5.60;;
49109;SDS011;34921;52.320;16.142;2023-06-10T08:14:00;10.03;;;5.25;;
49109;SDS011;34921;52.320;16.142;2023-06-10T08:16:28;10.30;;;5.03;;
49109;SDS011;34921;52.320;16.142;2023-06-10T08:18:56;8.75;;;5.33;;
49109;SDS011;34921;52.320;16.142;2023-06-10T08:21:24;6.95;;;4.85;;
49109;SDS011;34921;52.320;16.142;2023-06-10T08:23:53;9.53;;;4.65;;
49109;SDS011;34921;52.320;16.142;2023-06-10T08:26:21;12.60;;;5.42;;
49109;SDS011;34921;52.320;16.142;2023-06-10T08:28:49;10.13;;;4.80;;
49109;SDS011;34921;52.320;16.142;2023-06-10T08:31:17;9.50;;;4.58;;
49109;SDS011;34921;52.320;16.142;2023-06-10T08:33:45;13.70;;;5.08;;
49109;SDS011;34921;52.320;16.142;2023-06-10T08:41:21;13.13;;;4.92;;
49109;SDS011;34921;52.320;16.142;2023-06-10T08:43:59;9.68;;;4.80;;
49109;SDS011;34921;52.320;16.142;2023-06-10T08:46:50;9.18;;;4.80;;
49109;SDS011;34921;52.320;16.142;2023-06-10T08:49:19;10.43;;;4.90;;
49109;SDS011;34921;52.320;16.142;2023-06-10T08:51:50;9.85;;;4.50;;
49109;SDS011;34921;52.320;16.142;2023-06-10T08:54:20;14.70;;;5.20;;
49109;SDS011;34921;52.320;16.142;2023-06-10T08:56:50;10.63;;;4.80;;
49109;SDS011;34921;52.320;16.142;2023-06-10T08:59:19;9.00;;;4.33;;
49109;SDS011;34921;52.320;16.142;2023-06-10T09:01:47;9.38;;;4.65;;
49109;SDS011;34921;52.320;16.142;2023-06-10T09:04:16;10.35;;;4.10;;
49109;SDS011;34921;52.320;16.142;2023-06-10T09:06:45;8.40;;;4.40;;
49109;SDS011;34921;52.320;16.142;2023-06-10T09:14:13;14.73;;;5.05;;
49109;SDS011;34921;52.320;16.142;2023-06-10T09:16:42;14.15;;;4.50;;
49109;SDS011;34921;52.320;16.142;2023-06-10T09:21:42;6.60;;;4.22;;
49109;SDS011;34921;52.320;16.142;2023-06-10T09:24:11;20.30;;;4.75;;
49109;SDS011;34921;52.320;16.142;2023-06-10T09:26:41;8.15;;;4.28;;
49109;SDS011;34921;52.320;16.142;2023-06-10T09:29:11;7.40;;;4.08;;
49109;SDS011;34921;52.320;16.142;2023-06-10T09:31:40;9.63;;;4.35;;
49109;SDS011;34921;52.320;16.142;2023-06-10T09:39:14;9.68;;;4.42;;
49109;SDS011;34921;52.320;16.142;2023-06-10T09:44:15;8.15;;;4.37;;
49109;SDS011;34921;52.320;16.142;2023-06-10T09:46:45;9.38;;;4.25;;
49109;SDS011;34921;52.320;16.142;2023-06-10T09:49:15;8.43;;;4.47;;
49109;SDS011;34921;52.320;16.142;2023-06-10T09:54:14;10.70;;;3.95;;
49109;SDS011;34921;52.320;16.142;2023-06-10T09:56:43;8.15;;;4.15;;
49109;SDS011;34921;52.320;16.142;2023-06-10T09:59:11;11.80;;;4.20;;
49109;SDS011;34921;52.320;16.142;2023-06-10T10:01:40;9.35;;;4.12;;
49109;SDS011;34921;52.320;16.142;2023-06-10T10:04:08;14.70;;;4.50;;
49109;SDS011;34921;52.320;16.142;2023-06-10T10:06:37;11.35;;;4.17;;
49109;SDS011;34921;52.320;16.142;2023-06-10T10:09:06;12.63;;;4.45;;
49109;SDS011;34921;52.320;16.142;2023-06-10T10:14:04;11.75;;;4.33;;
49109;SDS011;34921;52.320;16.142;2023-06-10T10:16:35;7.00;;;4.25;;
49109;SDS011;34921;52.320;16.142;2023-06-10T10:21:40;7.35;;;4.10;;
49109;SDS011;34921;52.320;16.142;2023-06-10T10:24:19;11.55;;;4.30;;
49109;SDS011;34921;52.320;16.142;2023-06-10T10:26:49;9.10;;;4.25;;
49109;SDS011;34921;52.320;16.142;2023-06-10T10:29:20;9.03;;;4.25;;
49109;SDS011;34921;52.320;16.142;2023-06-10T10:31:51;11.08;;;4.05;;
49109;SDS011;34921;52.320;16.142;2023-06-10T10:34:57;10.88;;;3.92;;
49109;SDS011;34921;52.320;16.142;2023-06-10T10:37:19;10.75;;;4.42;;
49109;SDS011;34921;52.320;16.142;2023-06-10T10:39:48;10.03;;;4.22;;
49109;SDS011;34921;52.320;16.142;2023-06-10T10:42:17;10.60;;;4.25;;
49109;SDS011;34921;52.320;16.142;2023-06-10T10:47:17;7.87;;;3.58;;
49109;SDS011;34921;52.320;16.142;2023-06-10T10:49:50;8.83;;;3.65;;
49109;SDS011;34921;52.320;16.142;2023-06-10T10:52:23;8.35;;;4.15;;
49109;SDS011;34921;52.320;16.142;2023-06-10T10:54:52;10.23;;;4.15;;
49109;SDS011;34921;52.320;16.142;2023-06-10T10:59:52;7.90;;;4.00;;
49109;SDS011;34921;52.320;16.142;2023-06-10T11:02:36;8.63;;;4.03;;
49109;SDS011;34921;52.320;16.142;2023-06-10T11:07:41;11.73;;;4.90;;
49109;SDS011;34921;52.320;16.142;2023-06-10T11:10:28;9.08;;;3.90;;
49109;SDS011;34921;52.320;16.142;2023-06-10T11:13:14;10.78;;;4.37;;
49109;SDS011;34921;52.320;16.142;2023-06-10T11:15:47;10.68;;;3.83;;
49109;SDS011;34921;52.320;16.142;2023-06-10T11:23:25;11.53;;;4.83;;
49109;SDS011;34921;52.320;16.142;2023-06-10T11:31:29;7.90;;;3.90;;
49109;SDS011;34921;52.320;16.142;2023-06-10T11:34:08;9.28;;;4.20;;
49109;SDS011;34921;52.320;16.142;2023-06-10T11:36:37;8.53;;;3.92;;
49109;SDS011;34921;52.320;16.142;2023-06-10T11:39:12;8.13;;;4.12;;
49109;SDS011;34921;52.320;16.142;2023-06-10T11:41:40;6.85;;;4.05;;
49109;SDS011;34921;52.320;16.142;2023-06-10T11:44:09;8.88;;;3.98;;
49109;SDS011;34921;52.320;16.142;2023-06-10T11:46:39;8.35;;;5.17;;
49109;SDS011;34921;52.320;16.142;2023-06-10T11:49:10;6.87;;;3.98;;
49109;SDS011;34921;52.320;16.142;2023-06-10T11:51:39;11.10;;;4.35;;
49109;SDS011;34921;52.320;16.142;2023-06-10T11:54:12;9.85;;;4.70;;
49109;SDS011;34921;52.320;16.142;2023-06-10T11:56:40;6.67;;;4.12;;
49109;SDS011;34921;52.320;16.142;2023-06-10T11:59:08;6.15;;;4.37;;
49109;SDS011;34921;52.320;16.142;2023-06-10T12:01:38;7.45;;;3.70;;
49109;SDS011;34921;52.320;16.142;2023-06-10T12:04:11;7.12;;;4.45;;
49109;SDS011;34921;52.320;16.142;2023-06-10T12:06:44;6.03;;;3.40;;
49109;SDS011;34921;52.320;16.142;2023-06-10T12:11:49;7.83;;;3.90;;
49109;SDS011;34921;52.320;16.142;2023-06-10T12:17:22;7.53;;;3.90;;
49109;SDS011;34921;52.320;16.142;2023-06-10T12:19:51;8.30;;;4.08;;
49109;SDS011;34921;52.320;16.142;2023-06-10T12:22:19;11.03;;;5.92;;
49109;SDS011;34921;52.320;16.142;2023-06-10T12:24:57;9.13;;;5.67;;
49109;SDS011;34921;52.320;16.142;2023-06-10T12:27:30;7.22;;;4.17;;
49109;SDS011;34921;52.320;16.142;2023-06-10T12:30:00;9.68;;;4.20;;
49109;SDS011;34921;52.320;16.142;2023-06-10T12:32:41;12.82;;;4.87;;
49109;SDS011;34921;52.320;16.142;2023-06-10T12:35:22;7.83;;;4.28;;
49109;SDS011;34921;52.320;16.142;2023-06-10T12:37:59;6.22;;;4.10;;
49109;SDS011;34921;52.320;16.142;2023-06-10T12:40:32;21.57;;;5.20;;
49109;SDS011;34921;52.320;16.142;2023-06-10T12:43:02;7.78;;;4.28;;
49109;SDS011;34921;52.320;16.142;2023-06-10T12:50:58;8.20;;;4.03;;
49109;SDS011;34921;52.320;16.142;2023-06-10T12:53:28;8.53;;;4.10;;
49109;SDS011;34921;52.320;16.142;2023-06-10T12:55:56;5.90;;;4.15;;
49109;SDS011;34921;52.320;16.142;2023-06-10T12:58:25;7.78;;;4.00;;
49109;SDS011;34921;52.320;16.142;2023-06-10T13:00:54;7.08;;;4.47;;
49109;SDS011;34921;52.320;16.142;2023-06-10T13:03:22;7.50;;;4.05;;
49109;SDS011;34921;52.320;16.142;2023-06-10T13:05:51;7.50;;;3.98;;
49109;SDS011;34921;52.320;16.142;2023-06-10T13:08:20;10.85;;;4.20;;
49109;SDS011;34921;52.320;16.142;2023-06-10T13:10:49;8.98;;;4.12;;
49109;SDS011;34921;52.320;16.142;2023-06-10T13:13:17;9.47;;;4.90;;
49109;SDS011;34921;52.320;16.142;2023-06-10T13:15:45;10.20;;;4.50;;
49109;SDS011;34921;52.320;16.142;2023-06-10T13:18:14;6.65;;;4.00;;
49109;SDS011;34921;52.320;16.142;2023-06-10T13:20:42;9.08;;;4.20;;
49109;SDS011;34921;52.320;16.142;2023-06-10T13:23:11;6.25;;;3.83;;
49109;SDS011;34921;52.320;16.142;2023-06-10T13:25:39;7.22;;;4.00;;
49109;SDS011;34921;52.320;16.142;2023-06-10T13:28:08;9.43;;;4.17;;
49109;SDS011;34921;52.320;16.142;2023-06-10T13:30:37;11.53;;;4.22;;
49109;SDS011;34921;52.320;16.142;2023-06-10T13:33:05;5.42;;;3.90;;
49109;SDS011;34921;52.320;16.142;2023-06-10T13:35:34;5.97;;;4.40;;
49109;SDS011;34921;52.320;16.142;2023-06-10T13:38:02;7.78;;;3.90;;
49109;SDS011;34921;52.320;16.142;2023-06-10T13:40:30;8.60;;;4.08;;
49109;SDS011;34921;52.320;16.142;2023-06-10T13:42:59;9.85;;;4.20;;
49109;SDS011;34921;52.320;16.142;2023-06-10T13:45:28;7.20;;;3.83;;
49109;SDS011;34921;52.320;16.142;2023-06-10T13:47:56;8.30;;;3.98;;
49109;SDS011;34921;52.320;16.142;2023-06-10T13:50:25;6.00;;;4.15;;
49109;SDS011;34921;52.320;16.142;2023-06-10T13:52:53;7.80;;;3.95;;
49109;SDS011;34921;52.320;16.142;2023-06-10T13:55:22;5.90;;;3.87;;
49109;SDS011;34921;52.320;16.142;2023-06-10T13:57:52;8.20;;;3.83;;
49109;SDS011;34921;52.320;16.142;2023-06-10T14:00:20;8.20;;;4.28;;
49109;SDS011;34921;52.320;16.142;2023-06-10T14:02:49;8.65;;;3.85;;
49109;SDS011;34921;52.320;16.142;2023-06-10T14:05:17;6.00;;;3.83;;
49109;SDS011;34921;52.320;16.142;2023-06-10T14:07:46;8.00;;;4.05;;
49109;SDS011;34921;52.320;16.142;2023-06-10T14:10:14;5.75;;;3.92;;
49109;SDS011;34921;52.320;16.142;2023-06-10T14:12:43;9.18;;;3.80;;
49109;SDS011;34921;52.320;16.142;2023-06-10T14:15:11;6.22;;;3.70;;
49109;SDS011;34921;52.320;16.142;2023-06-10T14:17:40;6.83;;;3.98;;
49109;SDS011;34921;52.320;16.142;2023-06-10T14:20:08;8.25;;;4.25;;
49109;SDS011;34921;52.320;16.142;2023-06-10T14:22:36;6.10;;;4.10;;
49109;SDS011;34921;52.320;16.142;2023-06-10T14:25:05;8.03;;;3.80;;
49109;SDS011;34921;52.320;16.142;2023-06-10T14:27:34;6.95;;;3.42;;
49109;SDS011;34921;52.320;16.142;2023-06-10T14:30:02;8.25;;;3.70;;
49109;SDS011;34921;52.320;16.142;2023-06-10T14:32:31;7.30;;;3.52;;
49109;SDS011;34921;52.320;16.142;2023-06-10T14:35:00;8.98;;;3.83;;
49109;SDS011;34921;52.320;16.142;2023-06-10T14:37:28;13.43;;;4.33;;
49109;SDS011;34921;52.320;16.142;2023-06-10T14:39:56;8.13;;;4.20;;
49109;SDS011;34921;52.320;16.142;2023-06-10T14:42:25;9.50;;;3.83;;
49109;SDS011;34921;52.320;16.142;2023-06-10T14:44:53;7.12;;;3.52;;
49109;SDS011;34921;52.320;16.142;2023-06-10T14:47:21;5.90;;;3.65;;
49109;SDS011;34921;52.320;16.142;2023-06-10T14:49:49;7.97;;;3.45;;
49109;SDS011;34921;52.320;16.142;2023-06-10T14:52:18;5.97;;;3.05;;
49109;SDS011;34921;52.320;16.142;2023-06-10T14:54:46;7.10;;;3.60;;
49109;SDS011;34921;52.320;16.142;2023-06-10T14:57:15;11.12;;;3.72;;
49109;SDS011;34921;52.320;16.142;2023-06-10T14:59:43;11.90;;;3.83;;
49109;SDS011;34921;52.320;16.142;2023-06-10T15:02:11;8.83;;;3.87;;
49109;SDS011;34921;52.320;16.142;2023-06-10T15:04:41;6.12;;;3.65;;
49109;SDS011;34921;52.320;16.142;2023-06-10T15:07:09;6.55;;;3.58;;
49109;SDS011;34921;52.320;16.142;2023-06-10T15:09:37;5.47;;;3.52;;
49109;SDS011;34921;52.320;16.142;2023-06-10T15:12:06;7.87;;;4.00;;
49109;SDS011;34921;52.320;16.142;2023-06-10T15:14:34;8.13;;;3.40;;
49109;SDS011;34921;52.320;16.142;2023-06-10T15:17:03;8.53;;;3.80;;
49109;SDS011;34921;52.320;16.142;2023-06-10T15:19:31;9.78;;;3.80;;
49109;SDS011;34921;52.320;16.142;2023-06-10T15:22:00;10.05;;;3.40;;
49109;SDS011;34921;52.320;16.142;2023-06-10T15:24:29;6.85;;;3.72;;
49109;SDS011;34921;52.320;16.142;2023-06-10T15:26:57;11.97;;;3.62;;
49109;SDS011;34921;52.320;16.142;2023-06-10T15:29:25;7.65;;;3.55;;
49109;SDS011;34921;52.320;16.142;2023-06-10T15:31:54;7.30;;;3.75;;
49109;SDS011;34921;52.320;16.142;2023-06-10T15:34:23;10.15;;;5.22;;
49109;SDS011;34921;52.320;16.142;2023-06-10T15:36:51;8.80;;;4.92;;
49109;SDS011;34921;52.320;16.142;2023-06-10T15:39:19;7.97;;;4.20;;
49109;SDS011;34921;52.320;16.142;2023-06-10T15:41:48;8.30;;;4.70;;
49109;SDS011;34921;52.320;16.142;2023-06-10T15:44:16;7.65;;;3.70;;
49109;SDS011;34921;52.320;16.142;2023-06-10T15:46:44;10.10;;;3.37;;
49109;SDS011;34921;52.320;16.142;2023-06-10T15:49:13;6.97;;;4.10;;
49109;SDS011;34921;52.320;16.142;2023-06-10T15:51:41;7.10;;;3.42;;
49109;SDS011;34921;52.320;16.142;2023-06-10T15:54:09;6.75;;;3.20;;